Aplington, Iowa
Current Conditions -  °F | °C
As of 7:55 AM on Saturday 22 Nov 2014 (Local Time) from KIFA Reporting Station
Light Snow Light Snow  
Wind Chill: 28°   Ceiling: 200
Heat Index: 35°   Visibility: 0.25mi
Dew Point: 34°   Wind: 8mph
Humidity: 97%   Direction: 190°S
Pressure: 29.87"   Gusts: NA
Location:  42.58°N, 92.88°W
Report Text: KIFA 221355Z AUTO 19007KT 1/4SM -SN OVC002 02/01 A2987 RMK AO2 T00150010
Loading
Personal Weather Stations






























Interactive Weather Map New forecast layout! Learn more

10-Day Weather Forecast

Advertisements
Track Severe Weather on mobile